Time;durP1;ratioP1;P1;durP2;ratioP2;P2;SDS_P1;SDS_P2;PMS_P1;PMS_P2;Temp;Humidity;BMP_temperature;BMP_pressure;BME280_temperature;BME280_humidity;BME280_pressure;Samples;Min_cycle;Max_cycle;Signal;HPM_P1;HPM_P2
2021/03/12 00:00:18;;;;;;;157.32;105.10;;;230.70;1382.40;;;;;;4973397;28;20461;-68
2021/03/12 00:02:44;;;;;;;157.35;99.25;;;230.70;1356.80;;;;;;4973967;28;20031;-67
2021/03/12 00:05:11;;;;;;;145.65;92.07;;;230.80;1356.80;;;;;;4973272;28;20085;-66
2021/03/12 00:07:38;;;;;;;126.20;79.35;;;230.90;1356.80;;;;;;4973509;28;20374;-67
2021/03/12 00:10:25;;;;;;;119.30;70.38;;;230.80;1356.80;;;;;;4973377;28;20038;-67
2021/03/12 00:12:51;;;;;;;125.00;80.70;;;230.80;1356.80;;;;;;4973711;28;20019;-67
2021/03/12 00:15:20;;;;;;;138.90;84.38;;;230.80;1356.80;;;;;;4973205;28;20367;-66
2021/03/12 00:17:48;;;;;;;143.68;91.30;;;230.80;1356.80;;;;;;4973590;28;20045;-67
2021/03/12 00:20:16;;;;;;;150.93;92.30;;;230.70;1356.80;;;;;;4976046;28;20031;-66
2021/03/12 00:22:42;;;;;;;175.93;114.00;;;230.60;1408.00;;;;;;4977238;28;20034;-67
2021/03/12 00:25:12;;;;;;;212.60;132.95;;;230.60;1408.00;;;;;;4977162;28;20122;-67
2021/03/12 00:27:38;;;;;;;195.73;122.97;;;230.60;1382.40;;;;;;4977102;28;20029;-67
2021/03/12 00:30:07;;;;;;;188.95;115.13;;;230.70;1382.40;;;;;;4977338;28;20246;-68
2021/03/12 00:32:33;;;;;;;189.35;116.07;;;230.90;1356.80;;;;;;4977111;28;20029;-67
2021/03/12 00:34:59;;;;;;;184.85;115.57;;;230.80;1382.40;;;;;;4976855;28;20046;-67
2021/03/12 00:37:25;;;;;;;174.32;107.75;;;230.90;1356.80;;;;;;4977416;28;20078;-67
2021/03/12 00:39:51;;;;;;;180.35;113.82;;;230.70;1382.40;;;;;;4976862;28;20058;-67
2021/03/12 00:42:17;;;;;;;188.77;114.55;;;230.80;1408.00;;;;;;4976941;28;20109;-67
2021/03/12 00:44:43;;;;;;;161.57;101.97;;;230.70;1382.40;;;;;;4976987;28;20559;-68
2021/03/12 00:47:09;;;;;;;152.15;93.88;;;230.60;1382.40;;;;;;4977011;28;20031;-67
2021/03/12 00:49:35;;;;;;;164.07;104.03;;;230.60;1382.40;;;;;;4976930;28;20508;-67
2021/03/12 00:52:00;;;;;;;155.38;99.20;;;230.70;1408.00;;;;;;4976437;28;20551;-68
2021/03/12 00:54:26;;;;;;;162.98;99.32;;;230.70;1356.80;;;;;;4976589;28;20037;-65
2021/03/12 00:56:52;;;;;;;161.70;100.95;;;230.60;1382.40;;;;;;4976556;28;20046;-67
2021/03/12 00:59:18;;;;;;;160.05;97.72;;;230.60;1408.00;;;;;;4976589;28;20031;-67
2021/03/12 01:01:44;;;;;;;161.32;99.70;;;230.70;1382.40;;;;;;4976676;28;20034;-67
2021/03/12 01:04:09;;;;;;;143.10;92.22;;;230.70;1408.00;;;;;;4976304;28;20039;-68
2021/03/12 01:06:35;;;;;;;165.32;104.47;;;230.90;1356.80;;;;;;4976500;28;20034;-67
2021/03/12 01:09:02;;;;;;;184.35;109.25;;;230.70;1382.40;;;;;;4976585;28;20113;-67
2021/03/12 01:11:27;;;;;;;163.25;102.63;;;230.80;1356.80;;;;;;4976383;28;20030;-66
2021/03/12 01:13:53;;;;;;;171.68;106.45;;;230.70;1356.80;;;;;;4976229;28;20031;-66
2021/03/12 01:16:19;;;;;;;161.38;100.32;;;230.70;1382.40;;;;;;4976424;28;20562;-67
2021/03/12 01:18:45;;;;;;;142.48;92.40;;;230.80;1356.80;;;;;;4976248;28;20066;-66
2021/03/12 01:21:11;;;;;;;167.32;100.00;;;230.80;1356.80;;;;;;4976328;28;20501;-67
2021/03/12 01:23:37;;;;;;;140.57;88.15;;;230.80;1356.80;;;;;;4976645;28;20484;-67
2021/03/12 01:26:03;;;;;;;149.93;96.68;;;230.80;1356.80;;;;;;4976237;28;20050;-67
2021/03/12 01:28:28;;;;;;;164.32;99.03;;;230.70;1382.40;;;;;;4976201;28;20019;-66
2021/03/12 01:30:54;;;;;;;199.55;118.70;;;230.50;1408.00;;;;;;4974560;28;20129;-67
2021/03/12 01:33:20;;;;;;;163.82;105.53;;;230.50;1382.40;;;;;;4976304;28;20151;-67
2021/03/12 01:35:46;;;;;;;148.73;95.53;;;230.60;1382.40;;;;;;4975681;28;20076;-67
2021/03/12 01:38:12;;;;;;;132.68;84.93;;;230.60;1382.40;;;;;;4976009;28;20066;-67
2021/03/12 01:40:45;;;;;;;123.68;76.72;;;230.50;1382.40;;;;;;4975823;28;20022;-66
2021/03/12 01:43:11;;;;;;;126.00;77.68;;;230.60;1356.80;;;;;;4975880;28;20387;-67
2021/03/12 01:45:42;;;;;;;116.68;74.35;;;230.60;1356.80;;;;;;4975991;28;20094;-67
2021/03/12 01:48:12;;;;;;;119.47;74.70;;;230.70;1356.80;;;;;;4975592;28;20035;-67
2021/03/12 01:50:40;;;;;;;113.93;71.97;;;230.70;1356.80;;;;;;4975683;28;20033;-67
2021/03/12 01:53:10;;;;;;;152.45;99.13;;;230.70;1356.80;;;;;;4975197;28;20043;-66
2021/03/12 01:55:37;;;;;;;122.40;78.10;;;230.80;1382.40;;;;;;4975800;28;20381;-65
2021/03/12 01:58:04;;;;;;;118.05;76.45;;;230.80;1382.40;;;;;;4975770;28;20097;-67
2021/03/12 02:00:30;;;;;;;124.70;81.50;;;230.90;1382.40;;;;;;4975308;28;20026;-66
2021/03/12 02:02:57;;;;;;;146.43;94.78;;;230.80;1382.40;;;;;;4975696;28;20026;-68
2021/03/12 02:05:24;;;;;;;148.65;96.53;;;230.80;1382.40;;;;;;4975395;28;20058;-67
2021/03/12 02:07:49;;;;;;;141.15;89.88;;;230.80;1408.00;;;;;;4975514;28;20097;-67
2021/03/12 02:10:23;;;;;;;132.82;83.72;;;230.80;1382.40;;;;;;4975316;28;20058;-67
2021/03/12 02:13:23;;;;;;;150.80;91.30;;;230.80;1382.40;;;;;;4975195;28;20030;-67
2021/03/12 02:15:54;;;;;;;151.43;93.40;;;230.90;1382.40;;;;;;4975186;28;20018;-67
2021/03/12 02:18:42;;;;;;;139.90;89.60;;;230.90;1408.00;;;;;;4975280;28;20045;-67
2021/03/12 02:21:26;;;;;;;117.85;77.10;;;230.70;1382.40;;;;;;4974933;28;20027;-67
2021/03/12 02:23:52;;;;;;;116.53;71.53;;;230.40;1433.60;;;;;;4975063;28;20083;-67
2021/03/12 02:26:35;;;;;;;92.45;54.03;;;230.50;1433.60;;;;;;4975051;28;20027;-67
2021/03/12 02:29:05;;;;;;;85.10;50.90;;;230.50;1433.60;;;;;;4974832;28;20446;-67
2021/03/12 02:31:32;;;;;;;82.55;51.70;;;230.60;1408.00;;;;;;4975166;28;20039;-67
2021/03/12 02:33:59;;;;;;;105.00;62.15;;;230.50;1408.00;;;;;;4974820;28;20046;-67
2021/03/12 02:36:31;;;;;;;98.60;60.92;;;230.50;1408.00;;;;;;4975051;28;20026;-67
2021/03/12 02:38:58;;;;;;;98.82;60.60;;;230.40;1433.60;;;;;;4975262;28;20030;-66
2021/03/12 02:41:26;;;;;;;145.60;77.00;;;205.70;1459.20;;;;;;4974309;28;20021;-66
2021/03/12 02:43:53;;;;;;;77.18;49.80;;;205.50;1484.80;;;;;;4974596;28;20078;-67
2021/03/12 02:46:20;;;;;;;109.97;63.30;;;205.30;1510.40;;;;;;4974456;28;20101;-67
2021/03/12 02:48:48;;;;;;;98.90;58.55;;;205.50;1484.80;;;;;;4974646;28;20022;-67
2021/03/12 02:51:15;;;;;;;81.47;49.33;;;205.30;1510.40;;;;;;4974223;28;20050;-68
2021/03/12 02:53:42;;;;;;;80.85;48.03;;;;;;;;;;4974379;28;20063;-67
2021/03/12 02:56:08;;;;;;;54.47;33.03;;;;;;;;;;4974438;28;20058;-67
2021/03/12 02:58:35;;;;;;;39.38;26.42;;;;;;;;;;4974182;28;20022;-67
2021/03/12 03:01:02;;;;;;;40.20;24.75;;;;;;;;;;4974416;28;20031;-67
2021/03/12 03:03:29;;;;;;;35.85;21.58;;;;;;;;;;4974356;28;20019;-67
2021/03/12 03:05:56;;;;;;;33.25;23.02;;;;;;;;;;4974459;28;20035;-67
2021/03/12 03:08:22;;;;;;;32.88;23.38;;;205.30;1433.60;;;;;;4974321;28;20033;-67
2021/03/12 03:10:48;;;;;;;31.00;21.67;;;205.20;1433.60;;;;;;4974401;28;20026;-67
2021/03/12 03:13:14;;;;;;;36.13;22.10;;;205.30;1433.60;;;;;;4974535;28;20035;-66
2021/03/12 03:15:41;;;;;;;34.85;22.90;;;205.40;1459.20;;;;;;4974112;28;20446;-68
2021/03/12 03:18:08;;;;;;;35.90;24.83;;;205.40;1459.20;;;;;;4974235;28;20023;-67
2021/03/12 03:20:35;;;;;;;40.50;26.38;;;205.50;1408.00;;;;;;4973900;28;20034;-68
2021/03/12 03:23:01;;;;;;;39.38;25.92;;;205.10;1638.40;;;;;;4974158;28;20401;-67
2021/03/12 03:25:27;;;;;;;42.80;25.58;;;205.20;1510.40;;;;;;4973964;28;20030;-67
2021/03/12 03:27:52;;;;;;;42.72;27.40;;;205.50;1433.60;;;;;;4974862;28;20018;-67
2021/03/12 03:30:18;;;;;;;49.58;31.45;;;205.70;1408.00;;;;;;4973964;28;20449;-66
2021/03/12 03:32:44;;;;;;;43.13;30.52;;;205.50;1408.00;;;;;;4973814;28;20027;-66
2021/03/12 03:35:12;;;;;;;43.75;28.35;;;205.70;1408.00;;;;;;4974041;28;20519;-67
2021/03/12 03:37:38;;;;;;;43.35;27.48;;;205.40;1433.60;;;;;;4973892;28;20014;-66
2021/03/12 03:40:09;;;;;;;43.78;27.83;;;205.40;1484.80;;;;;;4973732;28;20023;-67
2021/03/12 03:42:36;;;;;;;38.47;27.02;;;205.60;1484.80;;;;;;4973481;28;20039;-65
2021/03/12 03:45:06;;;;;;;37.00;25.50;;;230.40;1408.00;;;;;;4973837;28;20382;-65
2021/03/12 03:47:33;;;;;;;35.78;26.38;;;230.40;1408.00;;;;;;4973983;28;20424;-65
2021/03/12 03:50:00;;;;;;;38.38;26.88;;;230.40;1408.00;;;;;;4973535;28;20010;-67
2021/03/12 03:52:27;;;;;;;36.53;24.38;;;205.50;1433.60;;;;;;4973543;28;20058;-66
2021/03/12 03:54:54;;;;;;;33.45;24.48;;;205.30;1433.60;;;;;;4972622;28;20039;-67
2021/03/12 03:57:21;;;;;;;35.25;21.52;;;205.30;1459.20;;;;;;4973583;28;20045;-67
2021/03/12 03:59:48;;;;;;;42.28;28.27;;;205.20;1459.20;;;;;;4973729;28;20039;-67
2021/03/12 04:02:17;;;;;;;36.30;26.35;;;205.40;1433.60;;;;;;4973678;28;20118;-67
2021/03/12 04:04:51;;;;;;;33.35;22.48;;;205.70;1408.00;;;;;;4973493;28;20473;-67
2021/03/12 04:07:19;;;;;;;31.27;22.90;;;205.50;1433.60;;;;;;4973281;28;20031;-67
2021/03/12 04:09:50;;;;;;;31.15;21.17;;;205.70;1459.20;;;;;;4973443;28;20033;-65
2021/03/12 04:12:16;;;;;;;24.52;19.40;;;205.40;1433.60;;;;;;4973116;28;20512;-67
2021/03/12 04:14:44;;;;;;;34.30;21.65;;;205.70;1408.00;;;;;;4973565;28;20393;-67
2021/03/12 04:17:11;;;;;;;40.83;25.02;;;205.50;1433.60;;;;;;4973188;28;20026;-67
2021/03/12 04:19:38;;;;;;;41.47;25.85;;;205.60;1433.60;;;;;;4973326;28;20041;-65
2021/03/12 04:22:04;;;;;;;48.75;32.08;;;205.20;1484.80;;;;;;4973391;28;20027;-67
2021/03/12 04:24:31;;;;;;;46.65;31.48;;;205.50;1459.20;;;;;;4973219;28;20026;-64
2021/03/12 04:26:58;;;;;;;44.42;29.90;;;205.60;1459.20;;;;;;4973583;28;20030;-66
2021/03/12 04:29:24;;;;;;;44.72;35.97;;;205.60;1459.20;;;;;;4973310;28;20111;-67
2021/03/12 04:31:50;;;;;;;41.80;27.90;;;205.60;1459.20;;;;;;4973462;28;20019;-66
2021/03/12 04:34:16;;;;;;;40.20;25.98;;;205.50;1459.20;;;;;;4973484;28;20049;-65
2021/03/12 04:36:43;;;;;;;57.95;32.88;;;205.50;1484.80;;;;;;4973578;28;20066;-64
2021/03/12 04:39:10;;;;;;;106.80;54.17;;;205.60;1484.80;;;;;;4973212;28;20027;-67
2021/03/12 04:41:36;;;;;;;76.45;44.28;;;205.50;1484.80;;;;;;4973135;28;20457;-64
2021/03/12 04:44:04;;;;;;;90.30;58.63;;;205.70;1484.80;;;;;;4973177;28;20030;-64
2021/03/12 04:46:31;;;;;;;86.97;54.60;;;230.40;1484.80;;;;;;4973190;28;20377;-66
2021/03/12 04:48:57;;;;;;;92.82;57.60;;;230.50;1459.20;;;;;;4973395;28;20030;-67
2021/03/12 04:51:23;;;;;;;90.35;56.88;;;230.50;1484.80;;;;;;4972653;28;20050;-65
2021/03/12 04:53:49;;;;;;;86.90;52.97;;;230.40;1484.80;;;;;;4973011;28;20104;-65
2021/03/12 04:56:15;;;;;;;84.20;52.63;;;230.50;1459.20;;;;;;4972842;28;20058;-65
2021/03/12 04:58:42;;;;;;;80.72;49.88;;;230.60;1459.20;;;;;;4972870;28;20051;-65
2021/03/12 05:01:11;;;;;;;76.38;47.03;;;230.50;1459.20;;;;;;4973118;28;20027;-67
2021/03/12 05:03:38;;;;;;;63.50;43.95;;;230.60;1459.20;;;;;;4972644;28;20034;-65
2021/03/12 05:06:07;;;;;;;72.60;42.50;;;230.70;1408.00;;;;;;4975193;28;20031;-65
2021/03/12 05:08:36;;;;;;;94.68;55.25;;;230.70;1382.40;;;;;;4976583;28;20038;-66
2021/03/12 05:11:09;;;;;;;97.45;57.50;;;230.70;1408.00;;;;;;4976720;28;20030;-66
2021/03/12 05:13:35;;;;;;;111.00;64.75;;;230.70;1408.00;;;;;;4976414;28;20043;-67
2021/03/12 05:16:01;;;;;;;104.68;59.75;;;230.70;1433.60;;;;;;4976452;28;20027;-66
2021/03/12 05:18:27;;;;;;;96.40;55.53;;;230.70;1433.60;;;;;;4976294;28;20034;-67
2021/03/12 05:20:53;;;;;;;89.95;53.38;;;230.80;1433.60;;;;;;4976328;28;20062;-67
2021/03/12 05:23:21;;;;;;;99.18;58.30;;;230.70;1433.60;;;;;;4976071;28;20037;-67
2021/03/12 05:25:47;;;;;;;111.15;68.85;;;230.80;1433.60;;;;;;4975957;28;20022;-66
2021/03/12 05:28:12;;;;;;;110.90;68.75;;;230.70;1459.20;;;;;;4976178;28;20029;-67
2021/03/12 05:30:38;;;;;;;107.00;67.45;;;230.60;1459.20;;;;;;4975803;28;20042;-67
2021/03/12 05:33:07;;;;;;;104.40;66.22;;;230.60;1459.20;;;;;;4976199;28;20027;-68
2021/03/12 05:35:33;;;;;;;102.88;63.42;;;230.80;1459.20;;;;;;4975864;28;20031;-67
2021/03/12 05:37:59;;;;;;;113.95;66.80;;;230.80;1459.20;;;;;;4975776;28;20046;-67
2021/03/12 05:40:25;;;;;;;108.22;62.72;;;230.70;1433.60;;;;;;4976305;28;20109;-67
2021/03/12 05:42:55;;;;;;;108.10;61.25;;;230.80;1433.60;;;;;;4975584;28;20437;-67
2021/03/12 05:45:21;;;;;;;112.80;66.85;;;230.50;1484.80;;;;;;4975847;28;20027;-67
2021/03/12 05:47:47;;;;;;;109.25;66.55;;;205.60;1510.40;;;;;;4975905;28;20397;-67
2021/03/12 05:50:14;;;;;;;119.57;73.72;;;230.40;1510.40;;;;;;4975968;28;20109;-67
2021/03/12 05:52:46;;;;;;;133.30;76.28;;;205.70;1510.40;;;;;;4975385;28;20497;-67
2021/03/12 05:55:13;;;;;;;;;;;230.50;1510.40;;;;;;4975749;28;20039;-65
2021/03/12 05:57:39;;;;;;;137.73;82.88;;;230.70;1484.80;;;;;;4975538;28;20048;-67
2021/03/12 06:00:06;;;;;;;150.05;89.97;;;;;;;;;;4975445;28;20084;-67
2021/03/12 06:02:31;;;;;;;167.43;101.45;;;230.70;1459.20;;;;;;4975952;28;20022;-67
2021/03/12 06:04:57;;;;;;;236.40;150.85;;;230.60;1484.80;;;;;;4975104;28;20042;-68
2021/03/12 06:07:23;;;;;;;202.50;126.13;;;230.60;1510.40;;;;;;4975133;28;20019;-66
2021/03/12 06:09:49;;;;;;;184.38;109.63;;;230.80;1484.80;;;;;;4975147;28;20031;-66
2021/03/12 06:12:15;;;;;;;176.10;106.43;;;231.00;1459.20;;;;;;4975386;28;20026;-70
2021/03/12 06:14:58;;;;;;;174.07;115.30;;;231.00;1459.20;;;;;;4975283;28;20035;-68
2021/03/12 06:17:45;;;;;;;175.18;116.45;;;231.20;1433.60;;;;;;4974228;28;20111;-69
2021/03/12 06:20:12;;;;;;;164.27;109.47;;;231.20;1433.60;;;;;;4975061;28;20425;-69
2021/03/12 06:22:51;;;;;;;157.27;101.63;;;231.30;1433.60;;;;;;4975082;28;20532;-68
2021/03/12 06:25:21;;;;;;;182.38;119.38;;;256.00;1459.20;;;;;;4975081;28;20033;-68
2021/03/12 06:27:48;;;;;;;201.05;123.70;;;231.30;1459.20;;;;;;4974930;28;20126;-67
2021/03/12 06:30:16;;;;;;;300.63;180.60;;;256.00;1459.20;;;;;;4975058;28;20073;-69
2021/03/12 06:32:53;;;;;;;219.27;132.57;;;256.10;1459.20;;;;;;4974533;28;20389;-70
2021/03/12 06:35:24;;;;;;;221.65;140.43;;;256.10;1459.20;;;;;;4974910;28;20066;-67
2021/03/12 06:37:51;;;;;;;232.35;136.07;;;256.20;1459.20;;;;;;4974935;28;20023;-66
2021/03/12 06:40:25;;;;;;;186.30;118.82;;;256.00;1484.80;;;;;;4975059;28;20031;-66
2021/03/12 06:43:17;;;;;;;194.65;107.65;;;256.10;1484.80;;;;;;4974330;28;20023;-66
2021/03/12 06:45:48;;;;;;;;;;;231.30;1484.80;;;;;;4975063;28;20018;-66
2021/03/12 06:48:27;;;;;;;228.68;130.82;;;231.20;1536.00;;;;;;4974489;28;22001;-70
2021/03/12 06:51:00;;;;;;;197.98;121.97;;;231.30;1510.40;;;;;;4974476;28;20536;-69
2021/03/12 06:53:38;;;;;;;212.32;126.30;;;256.00;1484.80;;;;;;4972545;28;20105;-70
2021/03/12 06:56:05;;;;;;;228.38;133.45;;;256.20;1484.80;;;;;;4974612;28;20038;-67
2021/03/12 06:58:33;;;;;;;211.27;129.35;;;256.20;1433.60;;;;;;4974274;28;20043;-66
2021/03/12 07:01:00;;;;;;;217.07;134.75;;;256.20;1459.20;;;;;;4974366;28;20110;-68
2021/03/12 07:03:33;;;;;;;229.20;146.98;;;256.20;1459.20;;;;;;4974102;28;20042;-67
2021/03/12 07:06:01;;;;;;;224.90;136.70;;;256.40;1459.20;;;;;;4974329;28;20023;-69
2021/03/12 07:08:32;;;;;;;239.23;148.45;;;256.20;1459.20;;;;;;4974002;28;20485;-66
2021/03/12 07:10:58;;;;;;;209.85;131.82;;;256.50;1433.60;;;;;;4974098;28;20077;-66
2021/03/12 07:13:25;;;;;;;197.82;127.53;;;256.40;1433.60;;;;;;4974087;28;20041;-67
2021/03/12 07:15:53;;;;;;;182.65;120.47;;;256.50;1433.60;;;;;;4960928;28;20102;-66
2021/03/12 07:18:20;;;;;;;175.15;116.78;;;256.50;1408.00;;;;;;4974024;28;20047;-66
2021/03/12 07:20:46;;;;;;;213.50;136.93;;;256.20;1408.00;;;;;;4972742;28;20026;-67
2021/03/12 07:23:17;;;;;;;204.20;130.15;;;256.30;1433.60;;;;;;4973521;28;20027;-67
2021/03/12 07:25:46;;;;;;;206.20;136.55;;;256.40;1433.60;;;;;;4973819;28;20023;-66
2021/03/12 07:28:16;;;;;;;250.68;151.32;;;256.30;1433.60;;;;;;4973820;28;20035;-61
2021/03/12 07:30:43;;;;;;;230.02;144.68;;;256.40;1433.60;;;;;;4973664;28;20034;-64
2021/03/12 07:33:10;;;;;;;216.60;138.02;;;256.50;1433.60;;;;;;4973705;28;20031;-68
2021/03/12 07:35:37;;;;;;;224.00;140.75;;;256.50;1433.60;;;;;;4973575;28;20038;-68
2021/03/12 07:38:06;;;;;;;227.32;141.63;;;256.70;1433.60;;;;;;4973612;28;20466;-68
2021/03/12 07:40:32;;;;;;;250.98;154.75;;;256.70;1433.60;;;;;;4973662;28;20039;-67
2021/03/12 07:42:59;;;;;;;258.05;163.85;;;256.70;1408.00;;;;;;4973232;28;20027;-67
2021/03/12 07:45:25;;;;;;;291.77;178.15;;;256.70;1408.00;;;;;;4956246;28;20437;-67
2021/03/12 07:47:51;;;;;;;266.25;168.07;;;256.60;1408.00;;;;;;4973596;28;20027;-68
2021/03/12 07:50:36;;;;;;;257.80;166.63;;;256.70;1408.00;;;;;;4973432;28;20069;-68
2021/03/12 07:53:03;;;;;;;290.60;182.10;;;256.60;1408.00;;;;;;4972705;28;20039;-65
2021/03/12 07:55:34;;;;;;;270.05;173.18;;;256.70;1408.00;;;;;;4973262;28;20026;-67
2021/03/12 07:58:01;;;;;;;;;;;256.80;1408.00;;;;;;4974082;28;20019;-67
2021/03/12 08:00:26;;;;;;;289.05;192.98;;;256.90;1408.00;;;;;;4973336;28;19957;-68
2021/03/12 08:02:53;;;;;;;297.85;190.88;;;256.80;1408.00;;;;;;4973363;28;20065;-67
2021/03/12 08:05:44;;;;;;;291.70;195.02;;;256.80;1408.00;;;;;;4973491;28;20034;-64
2021/03/12 08:08:30;;;;;;;322.77;211.65;;;281.60;1408.00;;;;;;4973337;28;20109;-64
2021/03/12 08:11:38;;;;;;;287.63;196.50;;;281.60;1408.00;;;;;;4973410;28;20494;-67
2021/03/12 08:14:19;;;;;;;230.68;151.93;;;281.80;1382.40;;;;;;4972592;28;20035;-67
2021/03/12 08:16:57;;;;;;;277.90;187.13;;;281.60;1356.80;;;;;;4973325;28;20114;-67
2021/03/12 08:19:32;;;;;;;272.50;181.98;;;281.70;1356.80;;;;;;4973230;28;20469;-67
2021/03/12 08:21:59;;;;;;;260.30;167.13;;;281.70;1382.40;;;;;;4972943;28;20105;-67
2021/03/12 08:24:49;;;;;;;260.55;158.85;;;281.60;1382.40;;;;;;4973233;28;20027;-67
2021/03/12 08:27:49;;;;;;;208.23;139.15;;;281.70;1408.00;;;;;;4973130;28;20070;-67
2021/03/12 08:30:24;;;;;;;189.88;124.05;;;281.70;1382.40;;;;;;4972982;28;20503;-67
2021/03/12 08:32:54;;;;;;;170.60;113.20;;;281.70;1382.40;;;;;;4972854;28;20041;-67
2021/03/12 08:35:35;;;;;;;287.45;178.32;;;281.80;1356.80;;;;;;4972996;28;20117;-67
2021/03/12 08:38:28;;;;;;;164.65;112.32;;;281.90;1331.20;;;;;;4973117;28;20565;-68
2021/03/12 08:41:08;;;;;;;155.98;113.60;;;281.80;1331.20;;;;;;4975303;28;20019;-67
2021/03/12 08:43:40;;;;;;;199.73;134.10;;;281.80;1331.20;;;;;;4963805;28;20481;-67
2021/03/12 08:46:16;;;;;;;206.32;134.65;;;281.70;1382.40;;;;;;4976743;28;20042;-67
2021/03/12 08:48:44;;;;;;;202.07;141.70;;;281.70;1433.60;;;;;;4976833;28;20102;-67
2021/03/12 08:51:16;;;;;;;207.43;141.77;;;256.90;1382.40;;;;;;4976322;28;20034;-67
2021/03/12 08:53:59;;;;;;;180.07;123.35;;;256.90;1382.40;;;;;;4976184;28;20034;-67
2021/03/12 08:56:35;;;;;;;197.45;130.68;;;256.90;1382.40;;;;;;4976462;28;20031;-66
2021/03/12 08:59:03;;;;;;;210.25;141.80;;;256.90;1382.40;;;;;;4976496;28;20105;-67
2021/03/12 09:01:31;;;;;;;181.27;121.35;;;281.60;1382.40;;;;;;4976376;28;20552;-67
2021/03/12 09:03:58;;;;;;;213.20;140.98;;;256.80;1331.20;;;;;;4976312;28;20063;-67
2021/03/12 09:06:26;;;;;;;208.27;139.40;;;256.90;1356.80;;;;;;4976573;28;20030;-66
2021/03/12 09:08:51;;;;;;;245.85;165.00;;;281.70;1331.20;;;;;;4976024;28;20065;-69
2021/03/12 09:11:20;;;;;;;240.05;176.65;;;281.80;1408.00;;;;;;4976333;28;20494;-67
2021/03/12 09:13:47;;;;;;;235.48;163.75;;;281.90;1408.00;;;;;;4975944;28;20034;-68
2021/03/12 09:16:22;;;;;;;228.20;157.57;;;281.90;1408.00;;;;;;4976144;28;20023;-67
2021/03/12 09:18:49;;;;;;;216.57;153.02;;;281.90;1382.40;;;;;;4975808;28;20039;-67
2021/03/12 09:21:18;;;;;;;291.60;199.88;;;282.00;1433.60;;;;;;4976155;28;20126;-66
2021/03/12 09:23:44;;;;;;;319.42;201.20;;;282.00;1459.20;;;;;;4976015;28;20355;-66
2021/03/12 09:26:15;;;;;;;269.23;181.18;;;282.00;1459.20;;;;;;4975780;28;20085;-67
2021/03/12 09:28:42;;;;;;;244.40;168.52;;;282.20;1459.20;;;;;;4976172;28;20069;-67
2021/03/12 09:31:09;;;;;;;230.57;155.05;;;282.20;1408.00;;;;;;4975693;28;20098;-67
2021/03/12 09:33:35;;;;;;;202.73;142.40;;;282.30;1382.40;;;;;;4975984;28;20038;-68
2021/03/12 09:36:22;;;;;;;200.68;140.35;;;282.40;1356.80;;;;;;4975768;28;20529;-68
2021/03/12 09:38:47;;;;;;;210.95;142.10;;;282.50;1331.20;;;;;;4975481;28;20027;-68
2021/03/12 09:41:25;;;;;;;193.80;133.88;;;282.40;1331.20;;;;;;4975580;28;20114;-68
2021/03/12 09:44:01;;;;;;;189.90;131.50;;;282.30;1356.80;;;;;;4975651;28;20034;-67
2021/03/12 09:46:29;;;;;;;194.60;132.98;;;282.30;1382.40;;;;;;4975579;28;20484;-68
2021/03/12 09:48:55;;;;;;;207.65;143.55;;;282.40;1382.40;;;;;;4975943;28;20398;-68
2021/03/12 09:51:22;;;;;;;202.75;140.65;;;307.20;1382.40;;;;;;4974313;28;20043;-70
2021/03/12 09:53:50;;;;;;;207.77;153.88;;;282.50;1356.80;;;;;;4975388;28;20055;-68
2021/03/12 09:56:20;;;;;;;150.75;107.43;;;282.40;1408.00;;;;;;4975474;28;20027;-69
2021/03/12 09:58:46;;;;;;;150.57;103.30;;;307.30;1356.80;;;;;;4975365;28;20011;-67
2021/03/12 10:01:19;;;;;;;152.02;105.32;;;307.60;1356.80;;;;;;4975470;28;20478;-67
2021/03/12 10:03:45;;;;;;;154.57;107.13;;;307.50;1331.20;;;;;;4975428;28;20023;-66
2021/03/12 10:06:13;;;;;;;161.02;112.95;;;307.80;1305.60;;;;;;4975157;28;20112;-71
2021/03/12 10:09:00;;;;;;;163.70;114.13;;;307.80;1280.00;;;;;;4974930;28;20023;-70
2021/03/12 10:11:49;;;;;;;183.90;123.55;;;307.90;1280.00;;;;;;4974805;28;20026;-67
2021/03/12 10:14:40;;;;;;;192.38;129.43;;;308.00;1305.60;;;;;;4962109;28;20045;-67
2021/03/12 10:17:28;;;;;;;196.97;128.47;;;332.80;1356.80;;;;;;4974912;28;20106;-68
2021/03/12 10:20:02;;;;;;;151.32;101.60;;;308.00;1356.80;;;;;;4974669;28;20070;-69
2021/03/12 10:22:32;;;;;;;147.43;98.18;;;308.10;1331.20;;;;;;4974669;28;20019;-67
2021/03/12 10:25:26;;;;;;;170.45;102.10;;;332.80;1356.80;;;;;;4974932;28;20067;-66
2021/03/12 10:28:06;;;;;;;139.70;93.15;;;332.80;1382.40;;;;;;4974463;28;20031;-68
2021/03/12 10:30:46;;;;;;;156.05;99.80;;;308.10;1356.80;;;;;;4974528;28;20033;-67
2021/03/12 10:33:26;;;;;;;140.57;92.03;;;308.10;1331.20;;;;;;4974559;28;20029;-67
2021/03/12 11:17:13;;;;;;;138.50;96.10;;;332.90;1408.00;;;;;;5087898;23;20049;-67
2021/03/12 11:23:10;;;;;;;133.95;93.28;;;308.00;1382.40;;;;;;5014955;28;20045;-67
2021/03/12 11:25:59;;;;;;;158.13;112.50;;;308.00;1382.40;;;;;;4992980;28;20043;-66
2021/03/12 11:48:45;;;;;;;;;;;332.80;1510.40;;;;;;5003948;28;20452;-66
2021/03/12 11:51:11;;;;;;;289.13;155.30;;;332.90;1510.40;;;;;;4974506;28;19914;-68
2021/03/12 11:53:36;;;;;;;248.40;145.10;;;333.00;1510.40;;;;;;4992425;28;20165;-68
2021/03/12 11:56:02;;;;;;;242.65;143.27;;;333.10;1484.80;;;;;;4990192;28;20447;-66
2021/03/12 11:58:28;;;;;;;220.35;140.40;;;333.10;1510.40;;;;;;4973898;28;20044;-66
2021/03/12 12:00:53;;;;;;;165.70;117.15;;;333.20;1510.40;;;;;;4993505;28;20349;-67
2021/03/12 12:03:19;;;;;;;141.98;105.45;;;333.30;1536.00;;;;;;4994150;28;20018;-65
2021/03/12 12:05:46;;;;;;;208.55;133.55;;;333.30;1510.40;;;;;;4988660;28;20042;-65
2021/03/12 12:08:11;;;;;;;161.88;114.65;;;333.40;1510.40;;;;;;4992245;28;20076;-65
2021/03/12 12:10:37;;;;;;;141.25;106.70;;;333.50;1459.20;;;;;;4992066;28;20022;-66
2021/03/12 12:13:04;;;;;;;203.32;130.80;;;333.60;1484.80;;;;;;4991955;28;20030;-65
2021/03/12 12:15:30;;;;;;;139.60;102.35;;;333.60;1459.20;;;;;;4993657;28;20050;-65
2021/03/12 12:18:10;;;;;;;117.85;89.90;;;333.60;1459.20;;;;;;4987109;28;20048;-66
2021/03/12 12:44:17;;;;;;;155.48;109.47;;;333.50;1510.40;;;;;;4977908;28;20041;-64
2021/03/12 12:46:43;;;;;;;200.10;134.52;;;333.50;1510.40;;;;;;4996375;28;20488;-67
2021/03/12 12:49:10;;;;;;;167.15;119.75;;;333.70;1510.40;;;;;;4996515;28;20536;-67
2021/03/12 12:51:36;;;;;;;159.35;114.57;;;333.60;1510.40;;;;;;5007294;28;20113;-68
2021/03/12 12:54:03;;;;;;;180.70;133.82;;;358.40;1484.80;;;;;;5010079;28;20160;-67
2021/03/12 12:56:28;;;;;;;154.32;112.40;;;333.70;1484.80;;;;;;5011418;28;20364;-67
2021/03/12 12:58:54;;;;;;;159.00;110.97;;;358.40;1510.40;;;;;;5008425;28;20026;-67
2021/03/12 13:01:20;;;;;;;141.90;100.63;;;333.70;1510.40;;;;;;4993514;28;20468;-67
2021/03/12 13:03:46;;;;;;;175.73;122.22;;;333.70;1536.00;;;;;;5007651;28;20022;-66
2021/03/12 13:06:12;;;;;;;153.07;114.05;;;333.60;1561.60;;;;;;5011334;28;20109;-67
2021/03/12 13:08:38;;;;;;;123.45;93.55;;;333.70;1561.60;;;;;;5008885;28;20626;-67
2021/03/12 13:11:05;;;;;;;147.63;104.57;;;333.70;1561.60;;;;;;5010412;28;20105;-68
2021/03/12 13:13:31;;;;;;;183.10;126.43;;;333.70;1561.60;;;;;;5007803;28;20040;-67
2021/03/12 13:15:58;;;;;;;173.52;118.00;;;333.40;1587.20;;;;;;5008332;28;20100;-67
2021/03/12 13:18:26;;;;;;;183.02;133.25;;;333.30;1638.40;;;;;;5011277;28;20556;-66
2021/03/12 13:20:58;;;;;;;195.43;141.75;;;333.10;1664.00;;;;;;4989950;28;20040;-65
2021/03/12 13:23:26;;;;;;;214.80;152.13;;;333.00;1664.00;;;;;;5011362;28;20037;-66
2021/03/12 13:25:52;;;;;;;205.25;151.35;;;333.00;1664.00;;;;;;4996944;28;20105;-63
2021/03/12 13:28:18;;;;;;;207.70;159.00;;;333.20;1689.60;;;;;;5011085;28;20014;-64
2021/03/12 13:30:46;;;;;;;181.63;131.07;;;333.10;1715.20;;;;;;5008391;28;20101;-66